Terminal Aerodrome Forecast
Issued by NWS Blacksburg, VA

Current Version | Previous Version | Graphics & Text | Print | Product List | Glossary On
Versions: 1 2 3 4 5 6 7 8 9 10 11 12 13 14 15 16 17 18 19 20 21 22 23 24 25 26 27 28 29 30 31 32
000
FTUS41 KRNK 232044 AAA
TAFBLF
TAF AMD
KBLF 232044Z 2321/2418 12011G25KT P6SM -RA OVC014
     FM240000 16015G29KT 4SM -RA BR OVC015
      TEMPO 2400/2404 2SM RA BR OVC008
     FM240600 20010G18KT 6SM BR SCT015 BKN050
     FM240800 20013G26KT P6SM BKN035=

USA.gov is the U.S. government's official web portal to all federal, state and local government web resources and services.